createdAt,value
2023-11-25T00:01:35.871Z,5.28
2023-11-25T00:04:08.806Z,6.72
2023-11-25T00:06:40.771Z,5.68
2023-11-25T00:09:08.609Z,7.75
2023-11-25T00:11:39.507Z,5.03
2023-11-25T00:14:07.624Z,5.18
2023-11-25T00:16:42.913Z,4.30
2023-11-25T00:19:12.898Z,4.95
2023-11-25T00:21:40.568Z,4.95
2023-11-25T00:24:08.976Z,4.95
2023-11-25T00:26:39.066Z,3.65
2023-11-25T00:29:06.986Z,3.53
2023-11-25T00:31:36.174Z,4.38
2023-11-25T00:34:03.451Z,4.22
2023-11-25T00:36:32.894Z,4.75
2023-11-25T00:39:05.873Z,3.85
2023-11-25T00:41:37.487Z,4.20
2023-11-25T00:44:07.810Z,3.80
2023-11-25T00:46:35.786Z,3.80
2023-11-25T00:49:03.544Z,3.38
2023-11-25T00:51:30.833Z,2.78
2023-11-25T00:53:58.850Z,3.80
2023-11-25T00:56:26.769Z,2.38
2023-11-25T00:58:56.516Z,2.53
2023-11-25T01:01:23.863Z,2.47
2023-11-25T01:03:52.186Z,2.70
2023-11-25T01:06:19.777Z,2.95
2023-11-25T01:08:58.600Z,2.35
2023-11-25T01:11:26.102Z,2.20
2023-11-25T01:13:57.212Z,2.33
2023-11-25T01:16:24.640Z,2.25
2023-11-25T01:18:52.631Z,2.50
2023-11-25T01:21:25.086Z,2.38
2023-11-25T01:23:52.367Z,2.42
2023-11-25T01:26:19.819Z,2.42
2023-11-25T01:28:49.898Z,2.17
2023-11-25T01:31:17.252Z,2.03
2023-11-25T01:33:47.196Z,2.53
2023-11-25T01:36:14.469Z,2.25
2023-11-25T01:38:44.209Z,2.13
2023-11-25T01:41:21.292Z,1.85
2023-11-25T01:43:53.358Z,1.50
2023-11-25T01:46:40.892Z,2.30
2023-11-25T01:49:14.080Z,1.70
2023-11-25T01:51:46.197Z,1.48
2023-11-25T01:54:18.029Z,1.50
2023-11-25T01:56:58.219Z,2.03
2023-11-25T01:59:36.241Z,1.58
2023-11-25T02:02:06.371Z,1.77
2023-11-25T02:04:35.134Z,1.80
2023-11-25T02:07:03.914Z,2.25
2023-11-25T02:09:38.864Z,2.35
2023-11-25T02:12:12.685Z,2.50
2023-11-25T02:14:41.830Z,2.28
2023-11-25T02:17:12.699Z,2.42
2023-11-25T02:19:39.982Z,2.33
2023-11-25T02:22:12.710Z,3.20
2023-11-25T02:24:40.029Z,2.72
2023-11-25T02:27:07.853Z,2.83
2023-11-25T02:29:38.014Z,2.60
2023-11-25T02:32:06.810Z,2.75
2023-11-25T02:34:34.279Z,5.38
2023-11-25T02:37:09.942Z,3.78
2023-11-25T02:39:39.230Z,3.55
2023-11-25T02:42:15.379Z,2.15
2023-11-25T02:44:43.440Z,2.65
2023-11-25T02:47:17.791Z,2.10
2023-11-25T02:49:45.307Z,2.40
2023-11-25T02:52:14.470Z,2.33
2023-11-25T02:54:48.402Z,2.83
2023-11-25T02:57:20.483Z,1.90
2023-11-25T03:00:14.126Z,2.35
2023-11-25T03:02:48.126Z,2.80
2023-11-25T03:05:16.021Z,2.10
2023-11-25T03:07:53.715Z,2.40
2023-11-25T03:10:23.275Z,2.38
2023-11-25T03:12:51.644Z,2.25
2023-11-25T03:18:00.974Z,2.60
2023-11-25T03:20:28.886Z,2.42
2023-11-25T03:23:01.319Z,2.83
2023-11-25T03:28:07.754Z,2.25
2023-11-25T03:30:36.724Z,1.73
2023-11-25T03:33:06.847Z,1.80
2023-11-25T03:35:34.905Z,2.20
2023-11-25T03:38:02.376Z,2.05
2023-11-25T03:40:30.583Z,2.10
2023-11-25T03:42:59.651Z,2.25
2023-11-25T03:45:27.671Z,2.50
2023-11-25T03:48:01.262Z,2.13
2023-11-25T03:50:32.327Z,2.92
2023-11-25T03:53:02.431Z,2.45
2023-11-25T03:55:38.992Z,2.45
2023-11-25T03:58:08.964Z,2.38
2023-11-25T04:00:38.673Z,2.00
2023-11-25T04:03:09.237Z,1.88
2023-11-25T04:05:42.448Z,2.10
2023-11-25T04:08:12.034Z,1.70
2023-11-25T04:10:39.696Z,1.92
2023-11-25T04:13:10.334Z,1.50
2023-11-25T04:15:37.896Z,11.40
2023-11-25T04:18:05.834Z,4.65
2023-11-25T04:20:36.074Z,2.70
2023-11-25T04:23:08.650Z,3.13
2023-11-25T04:25:37.664Z,1.98
2023-11-25T04:28:10.281Z,2.25
2023-11-25T04:30:41.017Z,2.08
2023-11-25T04:33:13.094Z,1.65
2023-11-25T04:35:42.933Z,1.88
2023-11-25T04:38:15.703Z,2.15
2023-11-25T04:40:46.946Z,1.98
2023-11-25T04:43:24.714Z,2.17
2023-11-25T04:45:53.808Z,2.17
2023-11-25T04:48:21.433Z,2.05
2023-11-25T04:50:53.947Z,2.08
2023-11-25T04:53:23.743Z,2.25
2023-11-25T04:56:01.328Z,2.63
2023-11-25T04:58:29.476Z,1.60
2023-11-25T05:01:14.796Z,1.90
2023-11-25T05:03:42.531Z,1.90
2023-11-25T05:06:16.227Z,2.20
2023-11-25T05:08:47.187Z,1.83
2023-11-25T05:11:20.356Z,2.20
2023-11-25T05:13:47.617Z,1.90
2023-11-25T05:19:01.365Z,2.00
2023-11-25T05:21:44.325Z,2.22
2023-11-25T05:24:12.262Z,2.10
2023-11-25T05:26:39.526Z,1.40
2023-11-25T05:29:13.247Z,2.20
2023-11-25T05:31:40.466Z,1.63
2023-11-25T05:34:11.490Z,1.65
2023-11-25T05:36:47.895Z,1.90
2023-11-25T05:39:22.319Z,2.00
2023-11-25T05:41:55.262Z,1.40
2023-11-25T05:44:28.912Z,1.95
2023-11-25T05:46:56.534Z,1.88
2023-11-25T05:49:27.940Z,1.88
2023-11-25T05:52:00.994Z,1.60
2023-11-25T05:54:31.617Z,6.45
2023-11-25T05:56:58.869Z,2.10
2023-11-25T05:59:29.647Z,1.85
2023-11-25T06:02:00.994Z,1.52
2023-11-25T06:04:31.752Z,1.50
2023-11-25T06:07:01.597Z,1.70
2023-11-25T06:09:33.901Z,2.00
2023-11-25T06:12:09.408Z,2.58
2023-11-25T06:14:40.078Z,2.15
2023-11-25T06:17:10.298Z,2.72
2023-11-25T06:19:38.958Z,2.50
2023-11-25T06:22:37.242Z,2.92
2023-11-25T06:25:09.623Z,3.25
2023-11-25T06:27:38.599Z,3.17
2023-11-25T06:30:07.369Z,2.38
2023-11-25T06:32:48.619Z,3.92
2023-11-25T06:35:19.849Z,4.03
2023-11-25T06:37:47.455Z,4.10
2023-11-25T06:40:21.351Z,4.93
2023-11-25T06:43:09.952Z,3.22
2023-11-25T06:45:42.044Z,3.95
2023-11-25T06:48:13.030Z,5.05
2023-11-25T06:50:40.506Z,4.80
2023-11-25T06:53:10.540Z,4.93
2023-11-25T06:55:52.955Z,5.53
2023-11-25T06:58:20.899Z,4.72
2023-11-25T07:00:51.314Z,5.40
2023-11-25T07:03:18.950Z,5.05
2023-11-25T07:05:49.038Z,4.55
2023-11-25T07:08:17.580Z,4.25
2023-11-25T07:10:55.349Z,3.97
2023-11-25T07:13:28.780Z,4.78
2023-11-25T07:16:01.796Z,4.60
2023-11-25T07:18:43.847Z,4.03
2023-11-25T07:21:15.383Z,4.22
2023-11-25T07:23:54.276Z,4.93
2023-11-25T07:26:44.077Z,6.05
2023-11-25T07:29:19.394Z,5.88
2023-11-25T07:31:48.455Z,4.28
2023-11-25T07:34:16.277Z,4.40
2023-11-25T07:36:48.096Z,4.65
2023-11-25T07:39:20.974Z,6.68
2023-11-25T07:41:55.268Z,6.35
2023-11-25T07:44:29.614Z,5.50
2023-11-25T07:46:59.844Z,5.72
2023-11-25T07:49:35.448Z,5.30
2023-11-25T07:52:10.686Z,8.00
2023-11-25T07:54:41.764Z,5.82
2023-11-25T07:57:12.274Z,6.28
2023-11-25T07:59:44.726Z,4.85
2023-11-25T08:02:12.159Z,5.63
2023-11-25T08:04:46.753Z,5.18
2023-11-25T08:07:16.209Z,6.18
2023-11-25T08:09:47.102Z,5.18
2023-11-25T08:12:17.693Z,7.38
2023-11-25T08:14:45.218Z,7.55
2023-11-25T08:17:15.996Z,8.00
2023-11-25T08:19:52.732Z,7.13
2023-11-25T08:22:23.214Z,5.65
2023-11-25T08:24:53.960Z,5.20
2023-11-25T08:27:21.709Z,7.20
2023-11-25T08:29:51.996Z,11.57
2023-11-25T08:32:19.625Z,7.78
2023-11-25T08:34:49.951Z,11.55
2023-11-25T08:37:17.816Z,10.43
2023-11-25T08:42:33.120Z,8.85
2023-11-25T08:45:05.870Z,8.10
2023-11-25T08:47:39.013Z,6.95
2023-11-25T08:50:10.622Z,6.43
2023-11-25T08:52:40.556Z,6.15
2023-11-25T08:55:14.471Z,5.55
2023-11-25T08:57:48.075Z,5.10
2023-11-25T09:00:23.794Z,5.35
2023-11-25T09:02:53.522Z,4.10
2023-11-25T09:05:31.411Z,3.80
2023-11-25T09:08:03.087Z,4.30
2023-11-25T09:10:30.270Z,4.55
2023-11-25T09:13:00.410Z,4.38
2023-11-25T09:15:31.044Z,4.28
2023-11-25T09:18:03.011Z,4.40
2023-11-25T09:20:30.904Z,4.47
2023-11-25T09:22:58.155Z,4.78
2023-11-25T09:25:28.727Z,4.38
2023-11-25T09:27:56.524Z,4.90
2023-11-25T09:30:36.683Z,5.55
2023-11-25T09:33:19.865Z,5.47
2023-11-25T09:35:50.586Z,5.63
2023-11-25T09:38:24.787Z,5.40
2023-11-25T09:40:56.075Z,5.10
2023-11-25T09:43:27.286Z,5.32
2023-11-25T09:45:58.830Z,6.25
2023-11-25T09:48:28.049Z,8.20
2023-11-25T09:50:56.343Z,7.03
2023-11-25T09:53:37.830Z,8.20
2023-11-25T09:59:05.648Z,10.90
2023-11-25T10:01:48.862Z,9.75
2023-11-25T10:04:24.743Z,10.57
2023-11-25T10:06:59.039Z,11.10
2023-11-25T10:09:30.418Z,12.25
2023-11-25T10:12:04.452Z,12.77
2023-11-25T10:14:32.482Z,14.43
2023-11-25T10:17:16.507Z,11.73
2023-11-25T10:19:56.010Z,12.68
2023-11-25T10:22:23.396Z,11.55
2023-11-25T10:24:54.170Z,11.70
2023-11-25T10:27:34.363Z,33.35
2023-11-25T10:30:10.223Z,19.17
2023-11-25T10:32:43.826Z,20.95
2023-11-25T10:35:11.848Z,22.17
2023-11-25T10:37:46.976Z,22.80
2023-11-25T10:40:21.321Z,24.73
2023-11-25T10:42:51.735Z,16.70
2023-11-25T10:45:27.607Z,22.60
2023-11-25T10:48:00.048Z,9.93
2023-11-25T10:50:31.710Z,9.65
2023-11-25T10:53:02.154Z,15.32
2023-11-25T10:55:32.297Z,11.82
2023-11-25T10:58:06.723Z,11.63
2023-11-25T11:00:36.504Z,9.85
2023-11-25T11:03:13.349Z,8.90
2023-11-25T11:06:01.014Z,12.25
2023-11-25T11:08:48.897Z,10.95
2023-11-25T11:11:21.546Z,8.25
2023-11-25T11:14:15.651Z,8.85
2023-11-25T11:16:49.427Z,9.65
2023-11-25T11:19:36.702Z,8.52
2023-11-25T11:22:29.166Z,10.10
2023-11-25T11:25:14.416Z,8.20
2023-11-25T11:28:00.882Z,7.38
2023-11-25T11:31:05.395Z,7.43
2023-11-25T11:33:35.102Z,10.48
2023-11-25T11:36:25.985Z,9.70
2023-11-25T11:41:40.431Z,7.28
2023-11-25T11:44:17.245Z,9.88
2023-11-25T11:46:53.927Z,9.38
2023-11-25T11:49:46.588Z,8.57
2023-11-25T11:56:15.343Z,6.60
2023-11-25T11:59:04.803Z,9.32
2023-11-25T12:01:33.890Z,10.20
2023-11-25T12:04:01.601Z,9.20
2023-11-25T12:06:29.565Z,8.48
2023-11-25T12:08:57.377Z,8.02
2023-11-25T12:11:25.687Z,9.05
2023-11-25T12:13:54.599Z,14.55
2023-11-25T12:16:22.643Z,11.55
2023-11-25T12:19:03.578Z,12.82
2023-11-25T12:21:33.391Z,10.25
2023-11-25T12:24:05.323Z,12.80
2023-11-25T12:26:34.836Z,10.07
2023-11-25T12:29:03.189Z,9.43
2023-11-25T12:31:37.973Z,9.60
2023-11-25T12:34:07.081Z,7.25
2023-11-25T12:36:36.824Z,4.70
2023-11-25T12:39:11.843Z,3.70
2023-11-25T12:41:51.257Z,4.20
2023-11-25T12:44:21.180Z,5.45
2023-11-25T12:47:21.081Z,4.40
2023-11-25T12:49:51.205Z,4.85
2023-11-25T12:52:24.822Z,3.92
2023-11-25T12:54:54.339Z,4.15
2023-11-25T12:57:30.768Z,3.70
2023-11-25T13:00:01.725Z,4.30
2023-11-25T13:02:37.680Z,3.75
2023-11-25T13:05:09.557Z,3.30
2023-11-25T13:07:51.459Z,3.40
2023-11-25T13:10:20.583Z,4.60
2023-11-25T13:12:51.316Z,3.90
2023-11-25T13:15:21.397Z,5.20
2023-11-25T13:18:03.654Z,3.50
2023-11-25T13:20:33.486Z,3.75
2023-11-25T13:23:07.323Z,4.13
2023-11-25T13:25:42.461Z,4.15
2023-11-25T13:28:18.943Z,4.22
2023-11-25T13:30:47.363Z,3.47
2023-11-25T13:33:23.796Z,3.80
2023-11-25T13:35:51.395Z,3.58
2023-11-25T13:38:19.243Z,3.30
2023-11-25T13:40:55.869Z,4.70
2023-11-25T13:43:25.827Z,5.53
2023-11-25T13:46:01.684Z,7.13
2023-11-25T13:48:32.130Z,4.72
2023-11-25T13:51:00.476Z,4.45
2023-11-25T13:53:28.641Z,4.32
2023-11-25T13:55:58.085Z,4.18
2023-11-25T13:58:28.634Z,5.00
2023-11-25T14:01:17.546Z,5.68
2023-11-25T14:03:56.392Z,4.95
2023-11-25T14:06:28.679Z,6.22
2023-11-25T14:09:01.648Z,14.32
2023-11-25T14:11:33.131Z,4.63
2023-11-25T14:14:01.818Z,3.30
2023-11-25T14:16:41.697Z,3.00
2023-11-25T14:19:15.340Z,3.42
2023-11-25T14:21:46.597Z,4.80
2023-11-25T14:24:23.039Z,2.90
2023-11-25T14:26:56.700Z,3.90
2023-11-25T14:29:26.965Z,4.82
2023-11-25T14:31:54.517Z,3.28
2023-11-25T14:34:22.137Z,2.67
2023-11-25T14:36:52.926Z,2.67
2023-11-25T14:39:24.585Z,2.72
2023-11-25T14:42:03.519Z,3.00
2023-11-25T14:44:31.172Z,3.25
2023-11-25T14:47:01.396Z,3.95
2023-11-25T14:49:30.167Z,5.38
2023-11-25T14:51:58.060Z,6.75
2023-11-25T14:54:25.528Z,6.93
2023-11-25T14:56:58.092Z,19.20
2023-11-25T14:59:28.024Z,20.63
2023-11-25T15:02:05.976Z,10.13
2023-11-25T15:04:42.987Z,16.58
2023-11-25T15:07:12.884Z,10.75
2023-11-25T15:09:40.534Z,14.20
2023-11-25T15:12:11.710Z,11.48
2023-11-25T15:14:44.789Z,12.23
2023-11-25T15:17:24.286Z,9.07
2023-11-25T15:20:09.797Z,8.30
2023-11-25T15:22:47.143Z,6.90
2023-11-25T15:25:16.335Z,8.02
2023-11-25T15:27:47.149Z,7.45
2023-11-25T15:33:09.386Z,10.30
2023-11-25T15:38:08.264Z,7.85
2023-11-25T15:40:37.418Z,8.32
2023-11-25T15:43:14.005Z,7.50
2023-11-25T15:45:45.023Z,16.65
2023-11-25T15:48:15.453Z,10.00
2023-11-25T15:50:49.641Z,8.07
2023-11-25T15:53:17.131Z,7.65
2023-11-25T15:55:47.249Z,6.25
2023-11-25T15:58:15.004Z,5.95
2023-11-25T16:00:44.940Z,5.35
2023-11-25T16:03:15.882Z,4.88
2023-11-25T16:05:52.670Z,4.75
2023-11-25T16:08:20.230Z,4.72
2023-11-25T16:11:11.152Z,4.38
2023-11-25T16:14:08.685Z,4.82
2023-11-25T16:16:41.001Z,4.10
2023-11-25T16:19:11.546Z,5.55
2023-11-25T16:21:40.914Z,4.47
2023-11-25T16:24:10.480Z,4.15
2023-11-25T16:26:41.577Z,4.55
2023-11-25T16:29:13.334Z,3.63
2023-11-25T16:31:45.826Z,5.90
2023-11-25T16:34:13.860Z,6.38
2023-11-25T16:36:42.426Z,6.22
2023-11-25T16:39:17.937Z,5.25
2023-11-25T16:41:51.109Z,4.82
2023-11-25T16:44:25.558Z,6.57
2023-11-25T16:46:56.440Z,5.60
2023-11-25T16:49:37.262Z,6.30
2023-11-25T16:52:08.952Z,8.25
2023-11-25T16:54:36.513Z,6.57
2023-11-25T16:57:03.832Z,6.00
2023-11-25T16:59:31.000Z,5.90
2023-11-25T17:02:02.935Z,5.40
2023-11-25T17:04:34.557Z,5.60
2023-11-25T17:07:10.079Z,5.40
2023-11-25T17:09:42.046Z,7.78
2023-11-25T17:12:09.986Z,6.75
2023-11-25T17:14:46.072Z,7.07
2023-11-25T17:17:22.255Z,4.50
2023-11-25T17:19:49.987Z,6.15
2023-11-25T17:22:17.575Z,18.00
2023-11-25T17:24:45.199Z,9.13
2023-11-25T17:27:12.968Z,8.10
2023-11-25T17:29:43.671Z,7.57
2023-11-25T17:32:17.578Z,4.28
2023-11-25T17:34:49.370Z,6.28
2023-11-25T17:37:30.042Z,6.53
2023-11-25T17:40:00.333Z,5.88
2023-11-25T17:42:27.815Z,5.28
2023-11-25T17:44:58.246Z,4.20
2023-11-25T17:47:26.297Z,3.90
2023-11-25T17:49:53.636Z,5.88
2023-11-25T17:52:21.212Z,3.88
2023-11-25T17:54:58.821Z,3.10
2023-11-25T17:57:31.484Z,3.70
2023-11-25T18:00:06.510Z,3.60
2023-11-25T18:02:39.197Z,4.43
2023-11-25T18:05:10.156Z,4.78
2023-11-25T18:07:44.993Z,5.85
2023-11-25T18:10:13.901Z,5.40
2023-11-25T18:12:52.415Z,7.00
2023-11-25T18:17:50.475Z,5.65
2023-11-25T18:20:21.803Z,5.18
2023-11-25T18:22:49.898Z,5.15
2023-11-25T18:25:18.051Z,4.78
2023-11-25T18:27:53.669Z,3.85
2023-11-25T18:30:21.476Z,4.70
2023-11-25T18:32:52.377Z,3.75
2023-11-25T18:35:20.779Z,3.10
2023-11-25T18:37:48.404Z,3.85
2023-11-25T18:40:16.562Z,3.55
2023-11-25T18:42:47.660Z,4.43
2023-11-25T18:45:15.177Z,5.03
2023-11-25T18:47:43.434Z,5.15
2023-11-25T18:50:11.496Z,6.05
2023-11-25T18:52:40.194Z,5.32
2023-11-25T18:55:11.543Z,13.27
2023-11-25T18:57:42.146Z,8.70
2023-11-25T19:00:16.212Z,4.57
2023-11-25T19:02:43.682Z,4.07
2023-11-25T19:05:11.322Z,4.43
2023-11-25T19:07:41.418Z,3.85
2023-11-25T19:10:15.040Z,3.97
2023-11-25T19:12:42.346Z,4.32
2023-11-25T19:15:11.153Z,4.15
2023-11-25T19:17:40.001Z,4.22
2023-11-25T19:20:08.927Z,4.30
2023-11-25T19:22:47.787Z,4.93
2023-11-25T19:25:17.871Z,4.82
2023-11-25T19:27:46.729Z,4.50
2023-11-25T19:30:14.855Z,5.43
2023-11-25T19:32:43.379Z,4.93
2023-11-25T19:35:15.208Z,5.38
2023-11-25T19:37:42.974Z,5.63
2023-11-25T19:40:14.769Z,5.30
2023-11-25T19:42:43.618Z,4.80
2023-11-25T19:45:13.241Z,5.47
2023-11-25T19:47:41.023Z,4.78
2023-11-25T19:50:12.617Z,5.53
2023-11-25T19:52:41.719Z,6.20
2023-11-25T19:55:13.698Z,5.32
2023-11-25T19:57:41.407Z,6.38
2023-11-25T20:00:11.281Z,4.82
2023-11-25T20:02:39.090Z,5.43
2023-11-25T20:05:08.489Z,5.93
2023-11-25T20:07:38.454Z,4.68
2023-11-25T20:10:10.202Z,5.72
2023-11-25T20:12:37.847Z,5.20
2023-11-25T20:15:07.187Z,5.03
2023-11-25T20:17:37.087Z,5.35
2023-11-25T20:20:09.260Z,6.07
2023-11-25T20:22:41.495Z,5.50
2023-11-25T20:25:13.861Z,5.30
2023-11-25T20:27:41.910Z,14.40
2023-11-25T20:30:09.996Z,4.85
2023-11-25T20:32:37.688Z,5.38
2023-11-25T20:35:09.141Z,6.03
2023-11-25T20:37:37.992Z,5.95
2023-11-25T20:40:06.711Z,5.10
2023-11-25T20:42:37.764Z,4.70
2023-11-25T20:45:08.608Z,6.28
2023-11-25T20:47:36.502Z,5.95
2023-11-25T20:50:05.203Z,5.50
2023-11-25T20:52:35.586Z,6.45
2023-11-25T20:55:03.102Z,6.00
2023-11-25T20:57:33.093Z,5.47
2023-11-25T21:00:00.801Z,5.47
2023-11-25T21:02:28.212Z,5.90
2023-11-25T21:05:10.564Z,5.63
2023-11-25T21:07:40.906Z,6.05
2023-11-25T21:10:12.135Z,5.63
2023-11-25T21:12:39.359Z,4.85
2023-11-25T21:15:07.367Z,6.13
2023-11-25T21:17:35.409Z,6.13
2023-11-25T21:20:09.253Z,5.20
2023-11-25T21:22:39.272Z,5.53
2023-11-25T21:25:10.022Z,5.53
2023-11-25T21:27:38.974Z,5.78
2023-11-25T21:30:07.129Z,5.40
2023-11-25T21:32:39.619Z,5.57
2023-11-25T21:35:12.321Z,6.10
2023-11-25T21:37:40.113Z,5.50
2023-11-25T21:40:16.750Z,4.93
2023-11-25T21:43:00.471Z,5.13
2023-11-25T21:45:44.716Z,5.40
2023-11-25T21:48:12.843Z,5.65
2023-11-25T21:50:40.670Z,4.75
2023-11-25T21:53:11.425Z,4.47
2023-11-25T21:55:38.806Z,37.33
2023-11-25T21:58:06.437Z,8.25
2023-11-25T22:00:33.669Z,4.03
2023-11-25T22:03:02.578Z,3.40
2023-11-25T22:05:30.537Z,4.80
2023-11-25T22:08:01.502Z,4.85
2023-11-25T22:10:31.670Z,3.70
2023-11-25T22:12:59.416Z,4.75
2023-11-25T22:15:27.135Z,4.18
2023-11-25T22:17:55.254Z,4.47
2023-11-25T22:20:23.451Z,4.63
2023-11-25T22:22:51.353Z,4.63
2023-11-25T22:25:28.667Z,4.78
2023-11-25T22:27:56.498Z,4.50
2023-11-25T22:30:25.225Z,4.75
2023-11-25T22:32:54.445Z,4.80
2023-11-25T22:35:22.283Z,5.72
2023-11-25T22:37:50.245Z,4.88
2023-11-25T22:40:20.233Z,4.78
2023-11-25T22:42:50.667Z,6.03
2023-11-25T22:45:17.846Z,4.47
2023-11-25T22:47:44.993Z,4.35
2023-11-25T22:50:12.790Z,4.65
2023-11-25T22:52:40.657Z,5.25
2023-11-25T22:55:08.849Z,4.38
2023-11-25T22:57:37.004Z,4.65
2023-11-25T23:00:07.999Z,4.93
2023-11-25T23:02:48.152Z,4.80
2023-11-25T23:05:15.939Z,5.03
2023-11-25T23:07:47.222Z,4.22
2023-11-25T23:10:17.688Z,4.85
2023-11-25T23:12:45.694Z,4.43
2023-11-25T23:15:14.494Z,4.15
2023-11-25T23:17:42.339Z,10.07
2023-11-25T23:20:12.571Z,5.20
2023-11-25T23:22:40.436Z,5.47
2023-11-25T23:25:19.221Z,4.82
2023-11-25T23:27:52.101Z,4.90
2023-11-25T23:30:22.314Z,4.30
2023-11-25T23:32:50.207Z,5.15
2023-11-25T23:35:17.886Z,4.80
2023-11-25T23:37:45.482Z,5.05
2023-11-25T23:40:15.135Z,4.40
2023-11-25T23:42:45.036Z,4.10
2023-11-25T23:45:12.263Z,4.75
2023-11-25T23:47:40.502Z,4.28
2023-11-25T23:50:13.131Z,4.95
2023-11-25T23:52:41.812Z,3.90
2023-11-25T23:55:13.006Z,4.85
2023-11-25T23:57:46.519Z,5.10
